sensor_id;sensor_type;location;lat;lon;timestamp;pressure;altitude;pressure_sealevel;temperature;humidity
75650;BME280;64245;51.282;22.494;2023-04-24T00:01:43;98382.50;;;8.89;67.28
75650;BME280;64245;51.282;22.494;2023-04-24T00:04:09;98375.50;;;8.96;66.62
75650;BME280;64245;51.282;22.494;2023-04-24T00:06:36;98372.81;;;8.96;66.93
75650;BME280;64245;51.282;22.494;2023-04-24T00:09:03;98379.41;;;9.02;66.60
75650;BME280;64245;51.282;22.494;2023-04-24T00:11:29;98397.63;;;9.16;67.00
75650;BME280;64245;51.282;22.494;2023-04-24T00:13:55;98369.53;;;9.02;66.81
75650;BME280;64245;51.282;22.494;2023-04-24T00:16:22;98387.28;;;9.21;66.19
75650;BME280;64245;51.282;22.494;2023-04-24T00:18:48;98388.66;;;9.07;66.91
75650;BME280;64245;51.282;22.494;2023-04-24T00:21:16;98375.94;;;9.09;66.37
75650;BME280;64245;51.282;22.494;2023-04-24T00:23:43;98355.34;;;8.92;67.12
75650;BME280;64245;51.282;22.494;2023-04-24T00:26:10;98372.06;;;9.04;66.94
75650;BME280;64245;51.282;22.494;2023-04-24T00:28:35;98356.88;;;8.94;66.87
75650;BME280;64245;51.282;22.494;2023-04-24T00:31:01;98365.38;;;8.90;68.77
75650;BME280;64245;51.282;22.494;2023-04-24T00:33:27;98361.00;;;8.89;66.79
75650;BME280;64245;51.282;22.494;2023-04-24T00:35:52;98340.78;;;8.77;67.32
75650;BME280;64245;51.282;22.494;2023-04-24T00:38:18;98362.16;;;8.86;67.23
75650;BME280;64245;51.282;22.494;2023-04-24T00:40:44;98356.03;;;8.94;67.62
75650;BME280;64245;51.282;22.494;2023-04-24T00:43:10;98351.50;;;8.94;67.16
75650;BME280;64245;51.282;22.494;2023-04-24T00:45:37;98337.50;;;8.83;67.90
75650;BME280;64245;51.282;22.494;2023-04-24T00:48:03;98357.63;;;8.87;68.47
75650;BME280;64245;51.282;22.494;2023-04-24T00:50:29;98364.06;;;8.94;67.44
75650;BME280;64245;51.282;22.494;2023-04-24T00:52:56;98350.47;;;8.70;68.54
75650;BME280;64245;51.282;22.494;2023-04-24T00:55:21;98339.41;;;8.73;68.56
75650;BME280;64245;51.282;22.494;2023-04-24T00:57:48;98365.53;;;8.88;68.64
75650;BME280;64245;51.282;22.494;2023-04-24T01:00:16;98339.69;;;8.61;68.61
75650;BME280;64245;51.282;22.494;2023-04-24T01:02:44;98365.72;;;8.69;69.20
75650;BME280;64245;51.282;22.494;2023-04-24T01:05:12;98358.63;;;8.60;69.22
75650;BME280;64245;51.282;22.494;2023-04-24T01:07:39;98355.94;;;8.60;69.52
75650;BME280;64245;51.282;22.494;2023-04-24T01:10:07;98339.16;;;8.40;69.72
75650;BME280;64245;51.282;22.494;2023-04-24T01:12:33;98360.00;;;8.46;70.07
75650;BME280;64245;51.282;22.494;2023-04-24T01:14:59;98363.06;;;8.51;70.24
75650;BME280;64245;51.282;22.494;2023-04-24T01:17:25;98345.19;;;8.24;70.70
75650;BME280;64245;51.282;22.494;2023-04-24T01:19:50;98357.53;;;8.35;70.57
75650;BME280;64245;51.282;22.494;2023-04-24T01:22:19;98360.06;;;8.37;71.60
75650;BME280;64245;51.282;22.494;2023-04-24T01:24:46;98361.06;;;8.36;70.92
75650;BME280;64245;51.282;22.494;2023-04-24T01:27:12;98362.84;;;8.45;70.55
75650;BME280;64245;51.282;22.494;2023-04-24T01:29:38;98350.41;;;8.26;71.28
75650;BME280;64245;51.282;22.494;2023-04-24T01:32:04;98346.72;;;8.27;71.54
75650;BME280;64245;51.282;22.494;2023-04-24T01:34:30;98355.38;;;8.21;70.97
75650;BME280;64245;51.282;22.494;2023-04-24T01:36:56;98335.13;;;8.09;71.55
75650;BME280;64245;51.282;22.494;2023-04-24T01:39:22;98346.94;;;8.16;72.22
75650;BME280;64245;51.282;22.494;2023-04-24T01:41:49;98357.91;;;8.05;72.50
75650;BME280;64245;51.282;22.494;2023-04-24T01:44:15;98339.41;;;8.02;71.92
75650;BME280;64245;51.282;22.494;2023-04-24T01:46:41;98328.84;;;8.00;71.56
75650;BME280;64245;51.282;22.494;2023-04-24T01:49:07;98343.16;;;7.91;72.34
75650;BME280;64245;51.282;22.494;2023-04-24T01:51:33;98328.53;;;7.85;73.35
75650;BME280;64245;51.282;22.494;2023-04-24T01:53:58;98333.41;;;7.90;72.65
75650;BME280;64245;51.282;22.494;2023-04-24T01:56:25;98329.22;;;7.87;72.01
75650;BME280;64245;51.282;22.494;2023-04-24T01:58:52;98348.34;;;7.92;72.70
75650;BME280;64245;51.282;22.494;2023-04-24T02:01:20;98343.69;;;7.94;73.15
75650;BME280;64245;51.282;22.494;2023-04-24T02:03:46;98310.94;;;7.73;73.32
75650;BME280;64245;51.282;22.494;2023-04-24T02:06:12;98346.75;;;7.82;74.14
75650;BME280;64245;51.282;22.494;2023-04-24T02:08:37;98345.19;;;7.79;73.92
75650;BME280;64245;51.282;22.494;2023-04-24T02:11:03;98333.00;;;7.67;75.03
75650;BME280;64245;51.282;22.494;2023-04-24T02:13:29;98336.13;;;7.62;74.56
75650;BME280;64245;51.282;22.494;2023-04-24T02:15:54;98320.97;;;7.71;74.88
75650;BME280;64245;51.282;22.494;2023-04-24T02:18:20;98334.94;;;7.75;73.98
75650;BME280;64245;51.282;22.494;2023-04-24T02:20:46;98321.31;;;7.68;73.93
75650;BME280;64245;51.282;22.494;2023-04-24T02:23:11;98317.94;;;7.66;73.72
75650;BME280;64245;51.282;22.494;2023-04-24T02:25:38;98310.03;;;7.65;74.26
75650;BME280;64245;51.282;22.494;2023-04-24T02:28:04;98310.91;;;7.83;73.01
75650;BME280;64245;51.282;22.494;2023-04-24T02:30:30;98311.81;;;7.91;73.85
75650;BME280;64245;51.282;22.494;2023-04-24T02:32:55;98301.19;;;7.82;74.03
75650;BME280;64245;51.282;22.494;2023-04-24T02:35:21;98321.69;;;7.91;73.38
75650;BME280;64245;51.282;22.494;2023-04-24T02:37:47;98298.09;;;7.77;73.39
75650;BME280;64245;51.282;22.494;2023-04-24T02:40:13;98297.72;;;7.89;74.02
75650;BME280;64245;51.282;22.494;2023-04-24T02:42:38;98295.72;;;7.74;74.47
75650;BME280;64245;51.282;22.494;2023-04-24T02:45:04;98302.69;;;7.67;73.44
75650;BME280;64245;51.282;22.494;2023-04-24T02:47:30;98301.03;;;7.56;75.40
75650;BME280;64245;51.282;22.494;2023-04-24T02:49:56;98324.97;;;7.67;74.87
75650;BME280;64245;51.282;22.494;2023-04-24T02:52:21;98317.38;;;7.62;75.40
75650;BME280;64245;51.282;22.494;2023-04-24T02:54:47;98303.50;;;7.49;76.02
75650;BME280;64245;51.282;22.494;2023-04-24T02:57:13;98300.13;;;7.47;77.89
75650;BME280;64245;51.282;22.494;2023-04-24T02:59:38;98295.56;;;7.30;76.83
75650;BME280;64245;51.282;22.494;2023-04-24T03:02:04;98310.72;;;7.39;77.22
75650;BME280;64245;51.282;22.494;2023-04-24T03:04:30;98306.19;;;7.49;76.54
75650;BME280;64245;51.282;22.494;2023-04-24T03:06:55;98321.44;;;7.67;74.88
75650;BME280;64245;51.282;22.494;2023-04-24T03:09:21;98316.31;;;7.73;76.30
75650;BME280;64245;51.282;22.494;2023-04-24T03:11:47;98299.50;;;7.53;76.09
75650;BME280;64245;51.282;22.494;2023-04-24T03:14:14;98297.03;;;7.42;75.85
75650;BME280;64245;51.282;22.494;2023-04-24T03:16:39;98322.19;;;7.59;75.88
75650;BME280;64245;51.282;22.494;2023-04-24T03:19:05;98309.84;;;7.48;76.22
75650;BME280;64245;51.282;22.494;2023-04-24T03:21:30;98294.38;;;7.42;76.10
75650;BME280;64245;51.282;22.494;2023-04-24T03:23:56;98316.94;;;7.67;76.32
75650;BME280;64245;51.282;22.494;2023-04-24T03:26:22;98297.66;;;7.54;76.38
75650;BME280;64245;51.282;22.494;2023-04-24T03:28:48;98304.53;;;7.66;76.91
75650;BME280;64245;51.282;22.494;2023-04-24T03:31:13;98305.81;;;7.62;75.45
75650;BME280;64245;51.282;22.494;2023-04-24T03:33:41;98299.50;;;7.81;74.40
75650;BME280;64245;51.282;22.494;2023-04-24T03:36:06;98303.31;;;7.78;75.85
75650;BME280;64245;51.282;22.494;2023-04-24T03:38:32;98300.03;;;7.84;76.13
75650;BME280;64245;51.282;22.494;2023-04-24T03:40:58;98308.84;;;7.94;75.71
75650;BME280;64245;51.282;22.494;2023-04-24T03:43:23;98315.50;;;7.90;75.35
75650;BME280;64245;51.282;22.494;2023-04-24T03:45:49;98293.91;;;7.92;74.74
75650;BME280;64245;51.282;22.494;2023-04-24T03:48:15;98312.91;;;7.98;75.67
75650;BME280;64245;51.282;22.494;2023-04-24T03:50:40;98300.41;;;7.89;74.59
75650;BME280;64245;51.282;22.494;2023-04-24T03:53:06;98316.81;;;8.04;74.91
75650;BME280;64245;51.282;22.494;2023-04-24T03:55:31;98310.53;;;7.95;74.85
75650;BME280;64245;51.282;22.494;2023-04-24T03:57:57;98315.19;;;7.93;75.23
75650;BME280;64245;51.282;22.494;2023-04-24T04:00:23;98320.63;;;7.84;75.54
75650;BME280;64245;51.282;22.494;2023-04-24T04:02:49;98291.75;;;7.78;74.60
75650;BME280;64245;51.282;22.494;2023-04-24T04:05:14;98311.81;;;7.91;75.60
75650;BME280;64245;51.282;22.494;2023-04-24T04:07:40;98300.88;;;7.85;75.29
75650;BME280;64245;51.282;22.494;2023-04-24T04:10:06;98320.78;;;7.82;76.26
75650;BME280;64245;51.282;22.494;2023-04-24T04:12:33;98318.09;;;7.82;76.01
75650;BME280;64245;51.282;22.494;2023-04-24T04:14:58;98326.16;;;7.82;75.85
75650;BME280;64245;51.282;22.494;2023-04-24T04:17:24;98325.91;;;7.93;75.40
75650;BME280;64245;51.282;22.494;2023-04-24T04:19:50;98309.22;;;7.82;76.00
75650;BME280;64245;51.282;22.494;2023-04-24T04:22:16;98306.25;;;7.85;75.71
75650;BME280;64245;51.282;22.494;2023-04-24T04:24:41;98316.19;;;7.92;75.54
75650;BME280;64245;51.282;22.494;2023-04-24T04:27:09;98307.84;;;7.95;74.66
75650;BME280;64245;51.282;22.494;2023-04-24T04:29:34;98321.34;;;8.04;75.48
75650;BME280;64245;51.282;22.494;2023-04-24T04:32:01;98316.75;;;8.14;75.27
75650;BME280;64245;51.282;22.494;2023-04-24T04:34:27;98298.75;;;8.24;75.10
75650;BME280;64245;51.282;22.494;2023-04-24T04:36:53;98304.59;;;8.37;74.88
75650;BME280;64245;51.282;22.494;2023-04-24T04:39:19;98316.28;;;8.54;74.38
75650;BME280;64245;51.282;22.494;2023-04-24T04:41:45;98317.50;;;8.59;74.28
75650;BME280;64245;51.282;22.494;2023-04-24T04:44:14;98306.50;;;8.71;74.39
75650;BME280;64245;51.282;22.494;2023-04-24T04:46:40;98321.19;;;9.02;72.29
75650;BME280;64245;51.282;22.494;2023-04-24T04:49:06;98321.75;;;9.14;72.16
75650;BME280;64245;51.282;22.494;2023-04-24T04:51:34;98306.16;;;9.17;71.18
75650;BME280;64245;51.282;22.494;2023-04-24T04:53:59;98315.75;;;9.28;71.07
75650;BME280;64245;51.282;22.494;2023-04-24T04:56:26;98314.34;;;9.50;71.18
75650;BME280;64245;51.282;22.494;2023-04-24T04:58:51;98307.34;;;9.57;70.43
75650;BME280;64245;51.282;22.494;2023-04-24T05:01:17;98323.53;;;9.73;70.81
75650;BME280;64245;51.282;22.494;2023-04-24T05:03:42;98308.03;;;9.59;70.54
75650;BME280;64245;51.282;22.494;2023-04-24T05:06:08;98313.28;;;9.77;70.60
75650;BME280;64245;51.282;22.494;2023-04-24T05:08:34;98321.69;;;9.82;69.19
75650;BME280;64245;51.282;22.494;2023-04-24T05:11:00;98281.34;;;9.74;69.21
75650;BME280;64245;51.282;22.494;2023-04-24T05:13:25;98302.75;;;9.91;67.99
75650;BME280;64245;51.282;22.494;2023-04-24T05:15:51;98303.94;;;10.05;68.04
75650;BME280;64245;51.282;22.494;2023-04-24T05:18:17;98318.09;;;10.15;66.55
75650;BME280;64245;51.282;22.494;2023-04-24T05:20:43;98315.59;;;10.22;66.59
75650;BME280;64245;51.282;22.494;2023-04-24T05:23:09;98316.47;;;10.30;66.08
75650;BME280;64245;51.282;22.494;2023-04-24T05:25:35;98319.66;;;10.42;64.72
75650;BME280;64245;51.282;22.494;2023-04-24T05:28:01;98324.88;;;10.52;65.69
75650;BME280;64245;51.282;22.494;2023-04-24T05:30:28;98306.53;;;10.47;65.71
75650;BME280;64245;51.282;22.494;2023-04-24T05:32:53;98297.81;;;10.53;64.66
75650;BME280;64245;51.282;22.494;2023-04-24T05:35:19;98321.84;;;10.79;65.39
75650;BME280;64245;51.282;22.494;2023-04-24T05:37:45;98319.97;;;10.80;65.31
75650;BME280;64245;51.282;22.494;2023-04-24T05:40:11;98297.13;;;10.76;63.74
75650;BME280;64245;51.282;22.494;2023-04-24T05:42:37;98315.56;;;11.11;62.71
75650;BME280;64245;51.282;22.494;2023-04-24T05:45:03;98310.31;;;11.26;61.28
75650;BME280;64245;51.282;22.494;2023-04-24T05:47:29;98326.31;;;11.27;63.06
75650;BME280;64245;51.282;22.494;2023-04-24T05:49:55;98323.75;;;11.42;62.14
75650;BME280;64245;51.282;22.494;2023-04-24T05:52:20;98301.81;;;11.45;61.34
75650;BME280;64245;51.282;22.494;2023-04-24T05:54:46;98322.59;;;11.75;61.03
75650;BME280;64245;51.282;22.494;2023-04-24T05:57:11;98326.69;;;11.71;62.71
75650;BME280;64245;51.282;22.494;2023-04-24T05:59:37;98317.88;;;11.86;60.54
75650;BME280;64245;51.282;22.494;2023-04-24T06:02:06;98314.75;;;11.97;60.74
75650;BME280;64245;51.282;22.494;2023-04-24T06:04:33;98319.22;;;12.13;61.20
75650;BME280;64245;51.282;22.494;2023-04-24T06:06:59;98298.34;;;12.06;59.91
75650;BME280;64245;51.282;22.494;2023-04-24T06:09:25;98300.59;;;12.26;61.30
75650;BME280;64245;51.282;22.494;2023-04-24T06:11:51;98313.72;;;12.52;59.41
75650;BME280;64245;51.282;22.494;2023-04-24T06:14:19;98314.69;;;12.59;61.53
75650;BME280;64245;51.282;22.494;2023-04-24T06:16:45;98294.22;;;12.64;58.92
75650;BME280;64245;51.282;22.494;2023-04-24T06:19:11;98304.50;;;12.84;59.33
75650;BME280;64245;51.282;22.494;2023-04-24T06:21:36;98286.44;;;12.99;59.08
75650;BME280;64245;51.282;22.494;2023-04-24T06:24:02;98276.84;;;12.96;57.39
75650;BME280;64245;51.282;22.494;2023-04-24T06:26:28;98308.13;;;13.28;55.72
75650;BME280;64245;51.282;22.494;2023-04-24T06:28:54;98308.53;;;13.40;56.75
75650;BME280;64245;51.282;22.494;2023-04-24T06:31:20;98296.56;;;13.34;54.72
75650;BME280;64245;51.282;22.494;2023-04-24T06:33:46;98305.81;;;13.40;54.91
75650;BME280;64245;51.282;22.494;2023-04-24T06:36:12;98295.91;;;13.47;57.06
75650;BME280;64245;51.282;22.494;2023-04-24T06:38:38;98289.88;;;13.45;54.53
75650;BME280;64245;51.282;22.494;2023-04-24T06:41:03;98294.34;;;13.53;54.00
75650;BME280;64245;51.282;22.494;2023-04-24T06:43:31;98279.78;;;13.54;54.54
75650;BME280;64245;51.282;22.494;2023-04-24T06:45:57;98296.41;;;13.65;54.53
75650;BME280;64245;51.282;22.494;2023-04-24T06:48:24;98280.03;;;13.73;53.91
75650;BME280;64245;51.282;22.494;2023-04-24T06:50:50;98295.22;;;13.89;53.89
75650;BME280;64245;51.282;22.494;2023-04-24T06:53:16;98281.69;;;13.89;53.62
75650;BME280;64245;51.282;22.494;2023-04-24T06:55:42;98291.19;;;14.00;53.64
75650;BME280;64245;51.282;22.494;2023-04-24T06:58:09;98287.47;;;14.01;54.60
75650;BME280;64245;51.282;22.494;2023-04-24T07:00:35;98280.78;;;14.18;52.41
75650;BME280;64245;51.282;22.494;2023-04-24T07:03:00;98298.63;;;14.34;52.20
75650;BME280;64245;51.282;22.494;2023-04-24T07:05:26;98298.41;;;14.50;52.87
75650;BME280;64245;51.282;22.494;2023-04-24T07:07:52;98291.28;;;14.42;52.54
75650;BME280;64245;51.282;22.494;2023-04-24T07:10:18;98274.28;;;14.55;53.78
75650;BME280;64245;51.282;22.494;2023-04-24T07:12:44;98287.75;;;14.70;51.83
75650;BME280;64245;51.282;22.494;2023-04-24T07:15:10;98280.84;;;14.67;52.85
75650;BME280;64245;51.282;22.494;2023-04-24T07:17:36;98288.34;;;14.65;51.71
75650;BME280;64245;51.282;22.494;2023-04-24T07:20:04;98273.16;;;14.71;53.75
75650;BME280;64245;51.282;22.494;2023-04-24T07:22:31;98298.25;;;15.01;52.41
75650;BME280;64245;51.282;22.494;2023-04-24T07:24:56;98300.72;;;15.02;53.06
75650;BME280;64245;51.282;22.494;2023-04-24T07:27:22;98283.78;;;14.94;51.89
75650;BME280;64245;51.282;22.494;2023-04-24T07:29:48;98299.44;;;15.19;51.29
75650;BME280;64245;51.282;22.494;2023-04-24T07:32:13;98281.13;;;15.00;50.30
75650;BME280;64245;51.282;22.494;2023-04-24T07:34:39;98295.25;;;15.24;50.99
75650;BME280;64245;51.282;22.494;2023-04-24T07:37:05;98294.41;;;15.23;50.37
75650;BME280;64245;51.282;22.494;2023-04-24T07:39:31;98294.59;;;15.49;50.21
75650;BME280;64245;51.282;22.494;2023-04-24T07:41:57;98296.34;;;15.57;51.07
75650;BME280;64245;51.282;22.494;2023-04-24T07:44:24;98275.19;;;15.52;50.13
75650;BME280;64245;51.282;22.494;2023-04-24T07:46:50;98273.59;;;15.58;49.44
75650;BME280;64245;51.282;22.494;2023-04-24T07:49:16;98296.91;;;15.87;49.37
75650;BME280;64245;51.282;22.494;2023-04-24T07:51:41;98290.19;;;15.83;48.63
75650;BME280;64245;51.282;22.494;2023-04-24T07:54:07;98296.31;;;15.98;48.61
75650;BME280;64245;51.282;22.494;2023-04-24T07:56:33;98286.81;;;16.29;49.43
75650;BME280;64245;51.282;22.494;2023-04-24T07:58:59;98284.94;;;16.29;48.11
75650;BME280;64245;51.282;22.494;2023-04-24T08:01:26;98286.50;;;16.71;48.01
75650;BME280;64245;51.282;22.494;2023-04-24T08:03:52;98283.13;;;16.76;48.04
75650;BME280;64245;51.282;22.494;2023-04-24T08:06:18;98280.81;;;16.79;48.94
75650;BME280;64245;51.282;22.494;2023-04-24T08:08:43;98283.78;;;16.91;46.98
75650;BME280;64245;51.282;22.494;2023-04-24T08:11:09;98278.97;;;16.86;47.08
75650;BME280;64245;51.282;22.494;2023-04-24T08:13:35;98285.44;;;17.05;48.04
75650;BME280;64245;51.282;22.494;2023-04-24T08:16:01;98277.06;;;17.00;47.58
75650;BME280;64245;51.282;22.494;2023-04-24T08:18:27;98273.94;;;16.83;46.40
75650;BME280;64245;51.282;22.494;2023-04-24T08:20:53;98291.28;;;17.02;48.28
75650;BME280;64245;51.282;22.494;2023-04-24T08:23:18;98292.97;;;17.03;47.08
75650;BME280;64245;51.282;22.494;2023-04-24T08:25:44;98268.91;;;16.93;47.78
75650;BME280;64245;51.282;22.494;2023-04-24T08:28:09;98287.94;;;17.07;47.49
75650;BME280;64245;51.282;22.494;2023-04-24T08:30:36;98278.09;;;17.19;47.28
75650;BME280;64245;51.282;22.494;2023-04-24T08:33:03;98276.41;;;17.31;47.83
75650;BME280;64245;51.282;22.494;2023-04-24T08:35:29;98291.41;;;17.60;47.70
75650;BME280;64245;51.282;22.494;2023-04-24T08:37:54;98272.59;;;17.65;45.72
75650;BME280;64245;51.282;22.494;2023-04-24T08:40:28;98267.69;;;17.87;45.51
75650;BME280;64245;51.282;22.494;2023-04-24T08:42:55;98258.88;;;17.85;44.18
75650;BME280;64245;51.282;22.494;2023-04-24T08:45:24;98259.44;;;18.00;43.20
75650;BME280;64245;51.282;22.494;2023-04-24T08:47:50;98259.53;;;18.25;45.08
75650;BME280;64245;51.282;22.494;2023-04-24T08:50:17;98259.75;;;18.23;43.26
75650;BME280;64245;51.282;22.494;2023-04-24T08:52:43;98271.69;;;18.54;41.71
75650;BME280;64245;51.282;22.494;2023-04-24T08:55:09;98253.25;;;18.24;40.53
75650;BME280;64245;51.282;22.494;2023-04-24T08:57:35;98249.78;;;18.42;41.98
75650;BME280;64245;51.282;22.494;2023-04-24T09:00:02;98255.66;;;18.71;39.69
75650;BME280;64245;51.282;22.494;2023-04-24T09:02:28;98238.06;;;18.67;40.93
75650;BME280;64245;51.282;22.494;2023-04-24T09:04:55;98258.38;;;18.71;39.44
75650;BME280;64245;51.282;22.494;2023-04-24T09:07:22;98254.56;;;18.78;40.32
75650;BME280;64245;51.282;22.494;2023-04-24T09:09:50;98255.34;;;18.85;39.79
75650;BME280;64245;51.282;22.494;2023-04-24T09:12:17;98253.50;;;18.79;41.67
75650;BME280;64245;51.282;22.494;2023-04-24T09:14:43;98243.06;;;18.70;40.02
75650;BME280;64245;51.282;22.494;2023-04-24T09:17:11;98236.34;;;18.97;41.51
75650;BME280;64245;51.282;22.494;2023-04-24T09:19:37;98252.41;;;19.30;41.72
75650;BME280;64245;51.282;22.494;2023-04-24T09:22:06;98228.81;;;19.17;41.11
75650;BME280;64245;51.282;22.494;2023-04-24T09:24:33;98257.19;;;19.35;39.59
75650;BME280;64245;51.282;22.494;2023-04-24T09:27:00;98258.84;;;19.36;38.69
75650;BME280;64245;51.282;22.494;2023-04-24T09:29:29;98244.59;;;19.33;41.94
75650;BME280;64245;51.282;22.494;2023-04-24T09:31:55;98241.06;;;19.51;42.91
75650;BME280;64245;51.282;22.494;2023-04-24T09:34:22;98233.84;;;19.39;39.53
75650;BME280;64245;51.282;22.494;2023-04-24T09:36:49;98247.53;;;19.57;41.41
75650;BME280;64245;51.282;22.494;2023-04-24T09:39:16;98247.38;;;19.70;40.24
75650;BME280;64245;51.282;22.494;2023-04-24T09:41:47;98233.53;;;19.83;41.56
75650;BME280;64245;51.282;22.494;2023-04-24T09:44:18;98233.03;;;20.05;39.11
75650;BME280;64245;51.282;22.494;2023-04-24T09:46:50;98224.25;;;20.02;39.34
75650;BME280;64245;51.282;22.494;2023-04-24T09:49:22;98239.72;;;20.09;38.79
75650;BME280;64245;51.282;22.494;2023-04-24T09:51:48;98237.63;;;19.92;38.00
75650;BME280;64245;51.282;22.494;2023-04-24T09:54:15;98240.19;;;20.06;38.48
75650;BME280;64245;51.282;22.494;2023-04-24T09:56:45;98225.28;;;20.20;39.86
75650;BME280;64245;51.282;22.494;2023-04-24T09:59:13;98226.25;;;20.55;36.57
75650;BME280;64245;51.282;22.494;2023-04-24T10:01:40;98221.16;;;20.71;36.70
75650;BME280;64245;51.282;22.494;2023-04-24T10:04:19;98212.44;;;20.62;37.63
75650;BME280;64245;51.282;22.494;2023-04-24T10:06:45;98221.06;;;20.77;37.72
75650;BME280;64245;51.282;22.494;2023-04-24T10:09:11;98218.31;;;20.77;36.27
75650;BME280;64245;51.282;22.494;2023-04-24T10:11:42;98201.53;;;20.74;36.18
75650;BME280;64245;51.282;22.494;2023-04-24T10:14:12;98209.06;;;20.78;33.50
75650;BME280;64245;51.282;22.494;2023-04-24T10:16:39;98216.56;;;20.94;33.97
75650;BME280;64245;51.282;22.494;2023-04-24T10:19:06;98203.56;;;20.90;35.05
75650;BME280;64245;51.282;22.494;2023-04-24T10:21:32;98224.28;;;21.09;31.02
75650;BME280;64245;51.282;22.494;2023-04-24T10:23:58;98215.81;;;20.99;32.50
75650;BME280;64245;51.282;22.494;2023-04-24T10:26:26;98210.69;;;20.67;31.35
75650;BME280;64245;51.282;22.494;2023-04-24T10:28:53;98210.81;;;20.84;31.94
75650;BME280;64245;51.282;22.494;2023-04-24T10:31:20;98195.72;;;21.05;32.85
75650;BME280;64245;51.282;22.494;2023-04-24T10:33:46;98190.13;;;21.12;32.40
75650;BME280;64245;51.282;22.494;2023-04-24T10:36:13;98220.94;;;21.19;29.70
75650;BME280;64245;51.282;22.494;2023-04-24T10:38:42;98204.16;;;20.92;32.53
75650;BME280;64245;51.282;22.494;2023-04-24T10:41:10;98198.09;;;21.48;32.85
75650;BME280;64245;51.282;22.494;2023-04-24T10:43:42;98188.22;;;21.76;32.98
75650;BME280;64245;51.282;22.494;2023-04-24T10:46:08;98194.00;;;21.74;30.25
75650;BME280;64245;51.282;22.494;2023-04-24T10:48:36;98183.69;;;22.38;32.41
75650;BME280;64245;51.282;22.494;2023-04-24T10:51:11;98172.34;;;22.96;33.64
75650;BME280;64245;51.282;22.494;2023-04-24T10:53:37;98186.41;;;23.77;33.38
75650;BME280;64245;51.282;22.494;2023-04-24T10:56:07;98183.94;;;23.37;28.60
75650;BME280;64245;51.282;22.494;2023-04-24T10:58:40;98178.41;;;23.75;28.94
75650;BME280;64245;51.282;22.494;2023-04-24T11:01:08;98174.44;;;24.37;32.99
75650;BME280;64245;51.282;22.494;2023-04-24T11:03:35;98176.03;;;24.60;26.77
75650;BME280;64245;51.282;22.494;2023-04-24T11:06:06;98180.72;;;24.10;27.08
75650;BME280;64245;51.282;22.494;2023-04-24T11:08:52;98169.78;;;24.69;28.07
75650;BME280;64245;51.282;22.494;2023-04-24T11:11:28;98159.44;;;25.19;25.84
75650;BME280;64245;51.282;22.494;2023-04-24T11:17:26;98167.19;;;25.74;25.61
75650;BME280;64245;51.282;22.494;2023-04-24T11:19:25;98171.75;;;23.93;27.50
75650;BME280;64245;51.282;22.494;2023-04-24T11:22:04;98175.09;;;22.96;29.47
75650;BME280;64245;51.282;22.494;2023-04-24T11:24:49;98185.69;;;22.26;32.27
75650;BME280;64245;51.282;22.494;2023-04-24T11:27:17;98178.69;;;21.78;30.39
75650;BME280;64245;51.282;22.494;2023-04-24T11:35:00;98164.91;;;23.96;29.66
75650;BME280;64245;51.282;22.494;2023-04-24T11:37:38;98169.69;;;22.06;29.74
75650;BME280;64245;51.282;22.494;2023-04-24T11:40:06;98177.97;;;22.73;30.35
75650;BME280;64245;51.282;22.494;2023-04-24T11:42:36;98160.94;;;24.35;27.04
75650;BME280;64245;51.282;22.494;2023-04-24T11:45:07;98164.28;;;24.16;28.68
75650;BME280;64245;51.282;22.494;2023-04-24T11:47:33;98177.84;;;22.96;28.96
75650;BME280;64245;51.282;22.494;2023-04-24T11:50:00;98162.25;;;22.52;29.71
75650;BME280;64245;51.282;22.494;2023-04-24T11:52:27;98159.38;;;23.08;29.77
75650;BME280;64245;51.282;22.494;2023-04-24T11:54:53;98153.13;;;24.00;29.43
75650;BME280;64245;51.282;22.494;2023-04-24T11:57:23;98143.97;;;24.43;27.19
75650;BME280;64245;51.282;22.494;2023-04-24T11:59:49;98149.09;;;24.99;27.54
75650;BME280;64245;51.282;22.494;2023-04-24T12:02:25;98147.75;;;25.01;25.00
75650;BME280;64245;51.282;22.494;2023-04-24T12:04:53;98121.00;;;25.02;24.14
75650;BME280;64245;51.282;22.494;2023-04-24T12:07:19;98145.84;;;24.38;25.49
75650;BME280;64245;51.282;22.494;2023-04-24T12:09:55;98147.25;;;23.26;28.21
75650;BME280;64245;51.282;22.494;2023-04-24T12:12:24;98140.59;;;25.05;27.57
75650;BME280;64245;51.282;22.494;2023-04-24T12:14:56;98128.38;;;26.06;26.95
75650;BME280;64245;51.282;22.494;2023-04-24T12:17:30;98124.88;;;26.71;26.09
75650;BME280;64245;51.282;22.494;2023-04-24T12:20:02;98098.03;;;26.77;23.54
75650;BME280;64245;51.282;22.494;2023-04-24T12:22:45;98121.25;;;26.91;23.69
75650;BME280;64245;51.282;22.494;2023-04-24T12:25:12;98128.41;;;26.16;24.76
75650;BME280;64245;51.282;22.494;2023-04-24T12:27:38;98113.47;;;26.22;25.06
75650;BME280;64245;51.282;22.494;2023-04-24T12:30:05;98116.63;;;25.01;25.80
75650;BME280;64245;51.282;22.494;2023-04-24T12:32:31;98121.91;;;24.38;24.41
75650;BME280;64245;51.282;22.494;2023-04-24T12:34:57;98098.06;;;25.43;23.90
75650;BME280;64245;51.282;22.494;2023-04-24T12:37:31;98104.44;;;26.47;24.50
75650;BME280;64245;51.282;22.494;2023-04-24T12:40:07;98106.56;;;27.26;21.17
75650;BME280;64245;51.282;22.494;2023-04-24T12:42:33;98099.44;;;26.74;23.09
75650;BME280;64245;51.282;22.494;2023-04-24T12:45:04;98091.38;;;27.13;20.70
75650;BME280;64245;51.282;22.494;2023-04-24T12:47:32;98083.94;;;26.89;22.13
75650;BME280;64245;51.282;22.494;2023-04-24T12:49:58;98073.78;;;26.43;20.10
75650;BME280;64245;51.282;22.494;2023-04-24T12:52:25;98080.75;;;28.05;21.39
75650;BME280;64245;51.282;22.494;2023-04-24T12:54:56;98077.84;;;27.76;22.07
75650;BME280;64245;51.282;22.494;2023-04-24T12:57:23;98086.00;;;28.46;18.31
75650;BME280;64245;51.282;22.494;2023-04-24T12:59:49;98066.91;;;28.05;21.93
75650;BME280;64245;51.282;22.494;2023-04-24T13:02:16;98071.31;;;28.06;21.37